x

Buoy F01 - West Penobscot Bay (44033) Wave Buoy

9:04am - Fri 28th Apr 2017 All times are EDT. -4 hours from GMT.

  • Sig Wave height 3.0ft
  • Peak Period 8s
  • Wind
    4mph
  • Sea Temp 44°f
  • Air Temp 45°f
  • Sea Pressure 1015.2mb
  • Buoy F01 - West Penobscot Bay
  • Buoy F01 - West Penobscot Bay

More Historic Weather Station data

Upgrade to MSW Pro to gain access to the past 30 days of data for over 8000 Wavebouys and Weather Stations around the globe.

Join Pro

Comparision Forecast

View Surf forecast
   
Fri 04/28 9:04am 3ft 8s 4
mph
1015.2mb 44f 45f
8:04am 3.5ft 8s 4 7 mph 1014.9mb 44f 45f
7:04am 3.5ft 8s 4
mph
1014.9mb 43f 44f
6:04am 3ft 8s 2 4 mph 1014.9mb 44f 45f
5:04am 3ft 11s 4 7 mph 1014.6mb 45f 45f
4:04am 3.5ft 11s 4 7 mph 1014.2mb 45f 44f
3:04am 3ft 8s 7 9 mph 1013.6mb 46f 44f
2:04am 3ft 11s 7
mph
1013.6mb 44f 44f
1:04am 3.5ft 11s 2
mph
1014mb 44f 44f
12:04am 3ft 11s 2 4 mph 1014mb 45f 44f
Thu 04/27 11:04pm 3ft 11s 2 4 mph 1014mb 45f 44f
10:04pm 4ft 8s 7 9 mph 1014.3mb 46f 44f
9:04pm 1.6ft 5s 13
mph
1013.7mb 45f 44f
8:04pm 4.5ft 11s 4 7 mph 1013.2mb 44f 47f
7:04pm 3.5ft 11s 4 7 mph 1013.3mb 45f 47f
5:04pm 3.5ft 11s 2
mph
1013.6mb 45f 46f
4:04pm  -   -  7
mph
1013.6mb - 47f
3:04pm 3ft 11s  -  2 mph 1013.8mb 45f 49f
2:04pm 3ft 11s  -  mph - 43f -
1:04pm 3.5ft 8s  -  mph - 43f -
12:04pm 3ft 8s  -  mph - 42f -
10:04am 3.5ft 8s 7 9 mph 1013.8mb 43f 47f
9:04am 4ft 8s 4 7 mph 1013.5mb 43f 46f
8:04am 4.5ft 11s 7
mph
1013.7mb 42f 46f
6:04am 3.5ft 8s 7
mph
1012.8mb 45f 46f
5:04am 3.5ft 8s 7
mph
1012.8mb 45f 46f
4:04am 3.5ft 8s 7
mph
1012.7mb 45f 46f
3:04am 3.5ft 6s 2 4 mph 1012.6mb 44f 47f
2:04am 4ft 11s 4 7 mph 1012.4mb 44f 47f
1:04am 3.5ft 6s 7 9 mph 1012.1mb 43f 46f
12:04am 4ft 8s 11 13 mph 1012.1mb 43f 46f
Wed 04/26 11:04pm 4.5ft 8s 13 16 mph 1012.2mb 43f 45f
10:04pm 4ft 8s 13 16 mph 1013mb 43f 46f
8:04pm 3.5ft 5s 16 18 mph 1013.3mb 44f 47f
7:04pm 3.5ft 5s 16 18 mph 1013.3mb 44f 47f
6:04pm  -   -  16 18 mph 1013.2mb - 47f
5:04pm 3.5ft 6s 16 18 mph 1013.2mb 44f 47f
4:04pm 3.5ft 6s 13 16 mph 1013.5mb 44f 47f
3:04pm 3.5ft 6s 13 16 mph 1014mb 45f 47f
2:04pm 3ft 6s 11 13 mph 1014.3mb 44f 47f
12:04pm 2.5ft 6s 4 7 mph 1015.6mb 44f 46f
11:04am 3ft 6s 13 18 mph 1016mb 43f 44f
10:04am 3ft 6s 13 18 mph 1016mb 43f 44f
9:04am 2.5ft 6s 11 13 mph 1016.5mb 43f 45f
8:04am 3ft 6s 13
mph
1017.1mb 43f 44f
7:04am 3.5ft 6s 18 22 mph 1017mb 43f 44f
6:04am 3.5ft 6s 20 25 mph 1016.8mb 43f 45f
5:04am 3.5ft 6s 20 22 mph 1017.3mb 44f 46f
4:04am 3.5ft 6s 18 20 mph 1018.4mb 44f 45f
3:04am 3.5ft 6s 18 22 mph 1019.3mb 44f 44f
2:04am 3.5ft 6s 20 22 mph 1020.1mb 43f 44f
1:04am 3.5ft 6s 16 20 mph 1022.4mb 43f 43f
12:04am 3.5ft 6s 16 20 mph 1022.4mb 43f 43f
Tue 04/25 11:04pm  -   -  18 20 mph 1023mb - 43f
9:04pm  -   -  20 25 mph 1024.6mb - 44f
8:04pm  -   -  18 25 mph 1024.9mb - 44f
7:04pm 2.5ft 4s 18 22 mph 1025.9mb 45f 44f
6:04pm 2.5ft 4s 18 22 mph 1026.5mb 45f 44f
5:04pm  -   -  16 20 mph 1026.8mb - 45f
4:04pm 1.3ft 4s 13 16 mph 1028.4mb 44f 45f
2:04pm 1.3ft 4s 13 16 mph 1028.4mb 44f 45f
1:04pm  -   -  16 18 mph 1028.7mb - 45f
12:04pm  -   -  13 16 mph 1029.4mb - 44f
11:04am  -   -  11 16 mph 1029.4mb - 44f
10:04am  -   -  13 16 mph 1028.9mb - 43f
9:04am 1.6ft 3s 16 18 mph 1028.8mb 43f 43f
8:04am 1.3ft 2s 16 20 mph 1028mb 44f 43f
7:04am 1.3ft 8s 11 13 mph 1027.9mb 44f 42f
6:04am 1.3ft 8s 7
mph
1026.4mb 42f 40f
5:04am 1.3ft 8s 7
mph
1026.4mb 42f 40f
4:04am 1.3ft 8s 7
mph
1026.3mb 42f 40f
Mon 04/24 11:04pm  -   -  4
mph
1024.5mb - 44f
10:04pm 1.6ft 11s  -  2 mph 1024.4mb 44f 44f
9:04pm 1.3ft 8s 7
mph
1023.4mb 44f 45f
8:04pm 1.3ft 8s 7
mph
1023.4mb 44f 45f
7:04pm 1ft 4s 2
mph
1022.7mb 45f 46f
6:04pm 1.3ft 5s 2 4 mph 1022.6mb 44f 47f
5:04pm 1.3ft 8s 7
mph
1022.1mb 43f 46f
4:04pm 1.6ft 11s 7
mph
1021.7mb 43f 48f